sensor_id;sensor_type;location;lat;lon;timestamp;P1;durP1;ratioP1;P2;durP2;ratioP2
705;SDS011;21234;48.690;9.016;2023-04-07T00:02:10;9.50;;;5.30;;
705;SDS011;21234;48.690;9.016;2023-04-07T00:04:37;9.00;;;5.70;;
705;SDS011;21234;48.690;9.016;2023-04-07T00:07:04;10.10;;;5.60;;
705;SDS011;21234;48.690;9.016;2023-04-07T00:09:30;8.33;;;5.53;;
705;SDS011;21234;48.690;9.016;2023-04-07T00:11:57;7.17;;;4.97;;
705;SDS011;21234;48.690;9.016;2023-04-07T00:14:27;8.97;;;5.80;;
705;SDS011;21234;48.690;9.016;2023-04-07T00:16:54;8.97;;;6.30;;
705;SDS011;21234;48.690;9.016;2023-04-07T00:19:21;7.37;;;5.60;;
705;SDS011;21234;48.690;9.016;2023-04-07T00:21:47;7.60;;;5.50;;
705;SDS011;21234;48.690;9.016;2023-04-07T00:24:14;7.33;;;5.00;;
705;SDS011;21234;48.690;9.016;2023-04-07T00:26:41;8.50;;;6.43;;
705;SDS011;21234;48.690;9.016;2023-04-07T00:29:08;7.63;;;5.70;;
705;SDS011;21234;48.690;9.016;2023-04-07T00:31:36;9.53;;;6.10;;
705;SDS011;21234;48.690;9.016;2023-04-07T00:34:02;9.37;;;5.77;;
705;SDS011;21234;48.690;9.016;2023-04-07T00:36:29;7.00;;;6.13;;
705;SDS011;21234;48.690;9.016;2023-04-07T00:38:56;7.97;;;6.40;;
705;SDS011;21234;48.690;9.016;2023-04-07T00:41:23;7.07;;;4.73;;
705;SDS011;21234;48.690;9.016;2023-04-07T00:43:49;7.33;;;5.00;;
705;SDS011;21234;48.690;9.016;2023-04-07T00:46:16;7.20;;;5.87;;
705;SDS011;21234;48.690;9.016;2023-04-07T00:48:47;7.57;;;5.70;;
705;SDS011;21234;48.690;9.016;2023-04-07T00:51:14;9.23;;;6.27;;
705;SDS011;21234;48.690;9.016;2023-04-07T00:53:41;5.97;;;5.37;;
705;SDS011;21234;48.690;9.016;2023-04-07T00:56:08;8.57;;;5.87;;
705;SDS011;21234;48.690;9.016;2023-04-07T00:58:35;11.40;;;5.50;;
705;SDS011;21234;48.690;9.016;2023-04-07T01:01:03;6.40;;;5.23;;
705;SDS011;21234;48.690;9.016;2023-04-07T01:03:35;7.03;;;6.23;;
705;SDS011;21234;48.690;9.016;2023-04-07T01:06:08;8.10;;;6.10;;
705;SDS011;21234;48.690;9.016;2023-04-07T01:08:41;8.90;;;5.93;;
705;SDS011;21234;48.690;9.016;2023-04-07T01:11:16;7.93;;;5.80;;
705;SDS011;21234;48.690;9.016;2023-04-07T01:13:49;8.37;;;5.63;;
705;SDS011;21234;48.690;9.016;2023-04-07T01:16:18;7.47;;;5.57;;
705;SDS011;21234;48.690;9.016;2023-04-07T01:18:51;6.70;;;6.00;;
705;SDS011;21234;48.690;9.016;2023-04-07T01:21:23;7.87;;;6.40;;
705;SDS011;21234;48.690;9.016;2023-04-07T01:24:00;8.40;;;5.90;;
705;SDS011;21234;48.690;9.016;2023-04-07T01:26:37;10.63;;;6.03;;
705;SDS011;21234;48.690;9.016;2023-04-07T01:29:10;9.47;;;7.13;;
705;SDS011;21234;48.690;9.016;2023-04-07T01:31:53;8.70;;;5.93;;
705;SDS011;21234;48.690;9.016;2023-04-07T01:34:23;6.30;;;5.30;;
705;SDS011;21234;48.690;9.016;2023-04-07T01:36:52;8.27;;;5.77;;
705;SDS011;21234;48.690;9.016;2023-04-07T01:39:20;9.00;;;6.90;;
705;SDS011;21234;48.690;9.016;2023-04-07T01:41:48;8.97;;;6.63;;
705;SDS011;21234;48.690;9.016;2023-04-07T01:44:17;7.17;;;5.80;;
705;SDS011;21234;48.690;9.016;2023-04-07T01:46:46;8.80;;;6.70;;
705;SDS011;21234;48.690;9.016;2023-04-07T01:49:15;7.20;;;5.63;;
705;SDS011;21234;48.690;9.016;2023-04-07T01:51:42;9.50;;;6.67;;
705;SDS011;21234;48.690;9.016;2023-04-07T01:54:14;9.53;;;5.67;;
705;SDS011;21234;48.690;9.016;2023-04-07T01:56:41;10.77;;;6.53;;
705;SDS011;21234;48.690;9.016;2023-04-07T01:59:08;9.67;;;6.30;;
705;SDS011;21234;48.690;9.016;2023-04-07T02:01:35;9.00;;;6.37;;
705;SDS011;21234;48.690;9.016;2023-04-07T02:04:05;7.40;;;5.63;;
705;SDS011;21234;48.690;9.016;2023-04-07T02:06:38;7.27;;;5.10;;
705;SDS011;21234;48.690;9.016;2023-04-07T02:09:09;9.70;;;6.20;;
705;SDS011;21234;48.690;9.016;2023-04-07T02:11:38;9.73;;;6.30;;
705;SDS011;21234;48.690;9.016;2023-04-07T02:14:07;6.50;;;5.60;;
705;SDS011;21234;48.690;9.016;2023-04-07T02:16:35;6.30;;;5.13;;
705;SDS011;21234;48.690;9.016;2023-04-07T02:19:04;8.60;;;6.90;;
705;SDS011;21234;48.690;9.016;2023-04-07T02:21:31;7.77;;;5.77;;
705;SDS011;21234;48.690;9.016;2023-04-07T02:23:59;9.20;;;6.50;;
705;SDS011;21234;48.690;9.016;2023-04-07T02:26:26;9.33;;;6.50;;
705;SDS011;21234;48.690;9.016;2023-04-07T02:28:53;9.63;;;5.57;;
705;SDS011;21234;48.690;9.016;2023-04-07T02:31:20;9.33;;;5.83;;
705;SDS011;21234;48.690;9.016;2023-04-07T02:33:46;8.00;;;6.00;;
705;SDS011;21234;48.690;9.016;2023-04-07T02:36:14;7.23;;;5.63;;
705;SDS011;21234;48.690;9.016;2023-04-07T02:38:41;7.07;;;5.83;;
705;SDS011;21234;48.690;9.016;2023-04-07T02:41:08;8.40;;;6.20;;
705;SDS011;21234;48.690;9.016;2023-04-07T02:43:34;7.33;;;6.60;;
705;SDS011;21234;48.690;9.016;2023-04-07T02:46:01;8.67;;;6.50;;
705;SDS011;21234;48.690;9.016;2023-04-07T02:48:28;7.63;;;6.07;;
705;SDS011;21234;48.690;9.016;2023-04-07T02:50:54;10.17;;;6.67;;
705;SDS011;21234;48.690;9.016;2023-04-07T02:53:22;8.13;;;6.00;;
705;SDS011;21234;48.690;9.016;2023-04-07T02:55:49;6.77;;;6.17;;
705;SDS011;21234;48.690;9.016;2023-04-07T02:58:16;10.37;;;6.60;;
705;SDS011;21234;48.690;9.016;2023-04-07T03:00:43;9.77;;;7.27;;
705;SDS011;21234;48.690;9.016;2023-04-07T03:03:09;6.93;;;5.30;;
705;SDS011;21234;48.690;9.016;2023-04-07T03:05:36;9.10;;;6.10;;
705;SDS011;21234;48.690;9.016;2023-04-07T03:08:03;9.20;;;6.87;;
705;SDS011;21234;48.690;9.016;2023-04-07T03:10:31;8.30;;;6.80;;
705;SDS011;21234;48.690;9.016;2023-04-07T03:12:58;9.33;;;6.93;;
705;SDS011;21234;48.690;9.016;2023-04-07T03:15:25;7.37;;;6.30;;
705;SDS011;21234;48.690;9.016;2023-04-07T03:17:51;8.90;;;6.20;;
705;SDS011;21234;48.690;9.016;2023-04-07T03:20:18;9.80;;;5.90;;
705;SDS011;21234;48.690;9.016;2023-04-07T03:22:45;7.50;;;6.37;;
705;SDS011;21234;48.690;9.016;2023-04-07T03:25:12;9.07;;;7.33;;
705;SDS011;21234;48.690;9.016;2023-04-07T03:27:40;9.80;;;5.80;;
705;SDS011;21234;48.690;9.016;2023-04-07T03:30:07;9.17;;;6.47;;
705;SDS011;21234;48.690;9.016;2023-04-07T03:32:35;9.93;;;7.10;;
705;SDS011;21234;48.690;9.016;2023-04-07T03:35:02;7.40;;;6.17;;
705;SDS011;21234;48.690;9.016;2023-04-07T03:37:29;7.97;;;6.70;;
705;SDS011;21234;48.690;9.016;2023-04-07T03:39:56;8.90;;;7.27;;
705;SDS011;21234;48.690;9.016;2023-04-07T03:42:22;10.23;;;6.80;;
705;SDS011;21234;48.690;9.016;2023-04-07T03:44:50;9.00;;;6.97;;
705;SDS011;21234;48.690;9.016;2023-04-07T03:47:17;10.87;;;6.50;;
705;SDS011;21234;48.690;9.016;2023-04-07T03:49:44;8.90;;;6.90;;
705;SDS011;21234;48.690;9.016;2023-04-07T03:52:11;13.10;;;6.07;;
705;SDS011;21234;48.690;9.016;2023-04-07T03:54:37;8.40;;;6.77;;
705;SDS011;21234;48.690;9.016;2023-04-07T03:57:04;9.97;;;6.67;;
705;SDS011;21234;48.690;9.016;2023-04-07T03:59:31;11.23;;;7.20;;
705;SDS011;21234;48.690;9.016;2023-04-07T04:01:59;10.50;;;7.00;;
705;SDS011;21234;48.690;9.016;2023-04-07T04:04:26;9.10;;;6.30;;
705;SDS011;21234;48.690;9.016;2023-04-07T04:06:52;11.93;;;7.30;;
705;SDS011;21234;48.690;9.016;2023-04-07T04:09:19;15.73;;;6.70;;
705;SDS011;21234;48.690;9.016;2023-04-07T04:11:46;10.50;;;6.93;;
705;SDS011;21234;48.690;9.016;2023-04-07T04:14:13;8.67;;;6.57;;
705;SDS011;21234;48.690;9.016;2023-04-07T04:16:39;10.90;;;7.10;;
705;SDS011;21234;48.690;9.016;2023-04-07T04:19:08;9.30;;;6.33;;
705;SDS011;21234;48.690;9.016;2023-04-07T04:21:34;8.50;;;6.43;;
705;SDS011;21234;48.690;9.016;2023-04-07T04:24:01;8.53;;;6.67;;
705;SDS011;21234;48.690;9.016;2023-04-07T04:26:28;7.00;;;5.80;;
705;SDS011;21234;48.690;9.016;2023-04-07T04:29:01;9.63;;;6.50;;
705;SDS011;21234;48.690;9.016;2023-04-07T04:31:29;8.97;;;6.80;;
705;SDS011;21234;48.690;9.016;2023-04-07T04:33:55;9.20;;;6.60;;
705;SDS011;21234;48.690;9.016;2023-04-07T04:36:23;9.67;;;7.20;;
705;SDS011;21234;48.690;9.016;2023-04-07T04:38:50;9.40;;;6.37;;
705;SDS011;21234;48.690;9.016;2023-04-07T04:41:17;10.40;;;7.70;;
705;SDS011;21234;48.690;9.016;2023-04-07T04:43:43;8.10;;;7.30;;
705;SDS011;21234;48.690;9.016;2023-04-07T04:46:10;8.70;;;6.53;;
705;SDS011;21234;48.690;9.016;2023-04-07T04:48:37;8.00;;;7.07;;
705;SDS011;21234;48.690;9.016;2023-04-07T04:51:03;9.17;;;6.97;;
705;SDS011;21234;48.690;9.016;2023-04-07T04:53:32;9.37;;;6.63;;
705;SDS011;21234;48.690;9.016;2023-04-07T04:55:58;8.43;;;7.53;;
705;SDS011;21234;48.690;9.016;2023-04-07T04:58:25;9.90;;;6.47;;
705;SDS011;21234;48.690;9.016;2023-04-07T05:00:52;8.03;;;5.83;;
705;SDS011;21234;48.690;9.016;2023-04-07T05:03:22;8.70;;;7.00;;
705;SDS011;21234;48.690;9.016;2023-04-07T05:05:49;9.80;;;7.37;;
705;SDS011;21234;48.690;9.016;2023-04-07T05:08:15;10.13;;;7.20;;
705;SDS011;21234;48.690;9.016;2023-04-07T05:10:43;8.87;;;7.07;;
705;SDS011;21234;48.690;9.016;2023-04-07T05:13:11;9.63;;;6.00;;
705;SDS011;21234;48.690;9.016;2023-04-07T05:15:39;8.13;;;6.73;;
705;SDS011;21234;48.690;9.016;2023-04-07T05:18:06;8.90;;;6.23;;
705;SDS011;21234;48.690;9.016;2023-04-07T05:20:33;9.10;;;6.70;;
705;SDS011;21234;48.690;9.016;2023-04-07T05:22:59;8.90;;;7.07;;
705;SDS011;21234;48.690;9.016;2023-04-07T05:25:26;8.80;;;6.33;;
705;SDS011;21234;48.690;9.016;2023-04-07T05:27:54;10.60;;;6.87;;
705;SDS011;21234;48.690;9.016;2023-04-07T05:30:21;9.63;;;8.27;;
705;SDS011;21234;48.690;9.016;2023-04-07T05:32:48;6.23;;;5.60;;
705;SDS011;21234;48.690;9.016;2023-04-07T05:35:15;7.60;;;6.63;;
705;SDS011;21234;48.690;9.016;2023-04-07T05:37:41;9.30;;;7.10;;
705;SDS011;21234;48.690;9.016;2023-04-07T05:40:08;8.20;;;7.27;;
705;SDS011;21234;48.690;9.016;2023-04-07T05:42:35;10.80;;;7.27;;
705;SDS011;21234;48.690;9.016;2023-04-07T05:45:04;8.60;;;6.73;;
705;SDS011;21234;48.690;9.016;2023-04-07T05:47:31;10.50;;;7.60;;
705;SDS011;21234;48.690;9.016;2023-04-07T05:49:58;8.40;;;6.40;;
705;SDS011;21234;48.690;9.016;2023-04-07T05:52:25;12.00;;;8.30;;
705;SDS011;21234;48.690;9.016;2023-04-07T05:54:52;10.00;;;6.63;;
705;SDS011;21234;48.690;9.016;2023-04-07T05:57:19;8.10;;;5.83;;
705;SDS011;21234;48.690;9.016;2023-04-07T05:59:46;10.60;;;7.67;;
705;SDS011;21234;48.690;9.016;2023-04-07T06:02:15;8.57;;;6.73;;
705;SDS011;21234;48.690;9.016;2023-04-07T06:04:42;8.30;;;6.40;;
705;SDS011;21234;48.690;9.016;2023-04-07T06:07:11;8.70;;;6.60;;
705;SDS011;21234;48.690;9.016;2023-04-07T06:09:38;9.17;;;6.80;;
705;SDS011;21234;48.690;9.016;2023-04-07T06:12:06;8.70;;;6.93;;
705;SDS011;21234;48.690;9.016;2023-04-07T06:14:34;10.03;;;6.40;;
705;SDS011;21234;48.690;9.016;2023-04-07T06:17:01;7.90;;;6.60;;
705;SDS011;21234;48.690;9.016;2023-04-07T06:19:29;9.47;;;6.70;;
705;SDS011;21234;48.690;9.016;2023-04-07T06:21:56;9.93;;;8.07;;
705;SDS011;21234;48.690;9.016;2023-04-07T06:24:23;7.13;;;6.10;;
705;SDS011;21234;48.690;9.016;2023-04-07T06:26:50;7.30;;;6.27;;
705;SDS011;21234;48.690;9.016;2023-04-07T06:29:18;9.07;;;6.80;;
705;SDS011;21234;48.690;9.016;2023-04-07T06:31:46;7.50;;;6.40;;
705;SDS011;21234;48.690;9.016;2023-04-07T06:34:13;10.03;;;7.10;;
705;SDS011;21234;48.690;9.016;2023-04-07T06:36:42;9.00;;;7.00;;
705;SDS011;21234;48.690;9.016;2023-04-07T06:39:08;9.80;;;7.20;;
705;SDS011;21234;48.690;9.016;2023-04-07T06:41:35;8.97;;;6.60;;
705;SDS011;21234;48.690;9.016;2023-04-07T06:44:03;9.03;;;6.80;;
705;SDS011;21234;48.690;9.016;2023-04-07T06:46:30;10.80;;;7.30;;
705;SDS011;21234;48.690;9.016;2023-04-07T06:48:57;9.83;;;6.60;;
705;SDS011;21234;48.690;9.016;2023-04-07T06:51:23;7.93;;;6.43;;
705;SDS011;21234;48.690;9.016;2023-04-07T06:53:52;8.53;;;6.80;;
705;SDS011;21234;48.690;9.016;2023-04-07T06:56:19;9.97;;;6.60;;
705;SDS011;21234;48.690;9.016;2023-04-07T06:58:46;9.17;;;7.17;;
705;SDS011;21234;48.690;9.016;2023-04-07T07:01:12;7.50;;;6.43;;
705;SDS011;21234;48.690;9.016;2023-04-07T07:03:40;6.60;;;5.33;;
705;SDS011;21234;48.690;9.016;2023-04-07T07:06:06;7.90;;;5.97;;
705;SDS011;21234;48.690;9.016;2023-04-07T07:08:33;14.40;;;7.40;;
705;SDS011;21234;48.690;9.016;2023-04-07T07:11:01;15.83;;;8.70;;
705;SDS011;21234;48.690;9.016;2023-04-07T07:13:28;8.80;;;7.10;;
705;SDS011;21234;48.690;9.016;2023-04-07T07:15:54;9.47;;;6.23;;
705;SDS011;21234;48.690;9.016;2023-04-07T07:18:21;7.60;;;6.03;;
705;SDS011;21234;48.690;9.016;2023-04-07T07:20:48;7.10;;;5.77;;
705;SDS011;21234;48.690;9.016;2023-04-07T07:23:15;6.03;;;5.43;;
705;SDS011;21234;48.690;9.016;2023-04-07T07:25:41;7.17;;;5.20;;
705;SDS011;21234;48.690;9.016;2023-04-07T07:28:10;8.77;;;5.93;;
705;SDS011;21234;48.690;9.016;2023-04-07T07:30:37;6.07;;;5.47;;
705;SDS011;21234;48.690;9.016;2023-04-07T07:33:05;8.33;;;5.97;;
705;SDS011;21234;48.690;9.016;2023-04-07T07:35:32;6.77;;;6.07;;
705;SDS011;21234;48.690;9.016;2023-04-07T07:37:58;7.53;;;6.37;;
705;SDS011;21234;48.690;9.016;2023-04-07T07:40:26;8.50;;;6.00;;
705;SDS011;21234;48.690;9.016;2023-04-07T07:42:53;7.93;;;6.40;;
705;SDS011;21234;48.690;9.016;2023-04-07T07:45:22;7.47;;;6.07;;
705;SDS011;21234;48.690;9.016;2023-04-07T07:47:49;6.83;;;5.63;;
705;SDS011;21234;48.690;9.016;2023-04-07T07:50:15;7.60;;;5.23;;
705;SDS011;21234;48.690;9.016;2023-04-07T07:52:42;7.60;;;5.23;;
705;SDS011;21234;48.690;9.016;2023-04-07T07:55:09;5.93;;;4.83;;
705;SDS011;21234;48.690;9.016;2023-04-07T07:57:36;6.87;;;6.00;;
705;SDS011;21234;48.690;9.016;2023-04-07T08:00:03;7.40;;;5.77;;
705;SDS011;21234;48.690;9.016;2023-04-07T08:02:32;5.83;;;5.30;;
705;SDS011;21234;48.690;9.016;2023-04-07T08:05:00;10.20;;;5.57;;
705;SDS011;21234;48.690;9.016;2023-04-07T08:07:27;8.80;;;6.77;;
705;SDS011;21234;48.690;9.016;2023-04-07T08:09:54;5.30;;;4.80;;
705;SDS011;21234;48.690;9.016;2023-04-07T08:12:21;6.20;;;5.40;;
705;SDS011;21234;48.690;9.016;2023-04-07T08:14:48;5.90;;;5.20;;
705;SDS011;21234;48.690;9.016;2023-04-07T08:17:15;7.83;;;5.03;;
705;SDS011;21234;48.690;9.016;2023-04-07T08:19:43;6.67;;;4.57;;
705;SDS011;21234;48.690;9.016;2023-04-07T08:22:10;5.30;;;3.87;;
705;SDS011;21234;48.690;9.016;2023-04-07T08:24:37;9.03;;;4.50;;
705;SDS011;21234;48.690;9.016;2023-04-07T08:27:03;5.97;;;4.50;;
705;SDS011;21234;48.690;9.016;2023-04-07T08:29:30;6.77;;;4.23;;
705;SDS011;21234;48.690;9.016;2023-04-07T08:31:57;5.70;;;3.77;;
705;SDS011;21234;48.690;9.016;2023-04-07T08:34:24;4.83;;;4.00;;
705;SDS011;21234;48.690;9.016;2023-04-07T08:36:52;6.50;;;4.43;;
705;SDS011;21234;48.690;9.016;2023-04-07T08:39:19;4.27;;;3.83;;
705;SDS011;21234;48.690;9.016;2023-04-07T08:41:46;5.47;;;3.93;;
705;SDS011;21234;48.690;9.016;2023-04-07T08:44:15;6.07;;;2.90;;
705;SDS011;21234;48.690;9.016;2023-04-07T08:46:43;5.53;;;2.40;;
705;SDS011;21234;48.690;9.016;2023-04-07T08:49:11;6.77;;;2.90;;
705;SDS011;21234;48.690;9.016;2023-04-07T08:51:41;3.60;;;2.90;;
705;SDS011;21234;48.690;9.016;2023-04-07T08:54:12;3.67;;;2.90;;
705;SDS011;21234;48.690;9.016;2023-04-07T08:56:41;4.70;;;3.40;;
705;SDS011;21234;48.690;9.016;2023-04-07T08:59:09;4.17;;;3.30;;
705;SDS011;21234;48.690;9.016;2023-04-07T09:01:37;3.50;;;2.27;;
705;SDS011;21234;48.690;9.016;2023-04-07T09:04:05;3.30;;;2.97;;
705;SDS011;21234;48.690;9.016;2023-04-07T09:06:33;5.37;;;3.13;;
705;SDS011;21234;48.690;9.016;2023-04-07T09:09:00;3.10;;;2.60;;
705;SDS011;21234;48.690;9.016;2023-04-07T09:11:33;3.27;;;2.97;;
705;SDS011;21234;48.690;9.016;2023-04-07T09:14:01;2.77;;;2.33;;
705;SDS011;21234;48.690;9.016;2023-04-07T09:16:28;3.13;;;2.80;;
705;SDS011;21234;48.690;9.016;2023-04-07T09:18:56;6.03;;;3.10;;
705;SDS011;21234;48.690;9.016;2023-04-07T09:21:23;5.03;;;2.43;;
705;SDS011;21234;48.690;9.016;2023-04-07T09:23:50;5.23;;;2.70;;
705;SDS011;21234;48.690;9.016;2023-04-07T09:26:18;3.37;;;2.27;;
705;SDS011;21234;48.690;9.016;2023-04-07T09:28:49;2.67;;;2.47;;
705;SDS011;21234;48.690;9.016;2023-04-07T09:31:17;4.30;;;2.77;;
705;SDS011;21234;48.690;9.016;2023-04-07T09:33:45;5.93;;;2.40;;
705;SDS011;21234;48.690;9.016;2023-04-07T09:36:12;4.60;;;2.90;;
705;SDS011;21234;48.690;9.016;2023-04-07T09:38:39;5.63;;;3.63;;
705;SDS011;21234;48.690;9.016;2023-04-07T09:41:07;2.60;;;2.30;;
705;SDS011;21234;48.690;9.016;2023-04-07T09:43:36;3.43;;;2.27;;
705;SDS011;21234;48.690;9.016;2023-04-07T09:46:10;3.60;;;3.10;;
705;SDS011;21234;48.690;9.016;2023-04-07T09:48:38;4.17;;;2.53;;
705;SDS011;21234;48.690;9.016;2023-04-07T09:51:05;3.87;;;2.10;;
705;SDS011;21234;48.690;9.016;2023-04-07T09:53:40;4.13;;;2.93;;
705;SDS011;21234;48.690;9.016;2023-04-07T09:56:08;4.37;;;2.57;;
705;SDS011;21234;48.690;9.016;2023-04-07T09:58:37;3.10;;;1.50;;
705;SDS011;21234;48.690;9.016;2023-04-07T10:01:05;2.20;;;2.00;;
705;SDS011;21234;48.690;9.016;2023-04-07T10:03:35;3.10;;;2.30;;
705;SDS011;21234;48.690;9.016;2023-04-07T10:06:02;4.57;;;3.13;;
705;SDS011;21234;48.690;9.016;2023-04-07T10:08:30;4.77;;;2.47;;
705;SDS011;21234;48.690;9.016;2023-04-07T10:10:58;4.27;;;2.53;;
705;SDS011;21234;48.690;9.016;2023-04-07T10:13:27;3.10;;;2.40;;
705;SDS011;21234;48.690;9.016;2023-04-07T10:15:54;4.83;;;3.23;;
705;SDS011;21234;48.690;9.016;2023-04-07T10:18:23;3.83;;;2.60;;
705;SDS011;21234;48.690;9.016;2023-04-07T10:20:56;2.80;;;2.60;;
705;SDS011;21234;48.690;9.016;2023-04-07T10:23:28;3.00;;;2.70;;
705;SDS011;21234;48.690;9.016;2023-04-07T10:26:03;4.70;;;3.50;;
705;SDS011;21234;48.690;9.016;2023-04-07T10:28:31;6.70;;;3.90;;
705;SDS011;21234;48.690;9.016;2023-04-07T10:31:03;4.40;;;4.00;;
705;SDS011;21234;48.690;9.016;2023-04-07T10:33:49;6.73;;;4.47;;
705;SDS011;21234;48.690;9.016;2023-04-07T10:36:18;5.73;;;4.30;;
705;SDS011;21234;48.690;9.016;2023-04-07T10:41:47;6.30;;;3.53;;
705;SDS011;21234;48.690;9.016;2023-04-07T10:47:24;4.90;;;4.03;;
705;SDS011;21234;48.690;9.016;2023-04-07T10:52:42;6.80;;;5.20;;
705;SDS011;21234;48.690;9.016;2023-04-07T10:55:31;7.00;;;5.33;;
705;SDS011;21234;48.690;9.016;2023-04-07T10:58:16;6.63;;;4.30;;
705;SDS011;21234;48.690;9.016;2023-04-07T11:03:52;5.67;;;3.97;;
705;SDS011;21234;48.690;9.016;2023-04-07T11:06:23;5.50;;;4.57;;
705;SDS011;21234;48.690;9.016;2023-04-07T11:08:52;6.60;;;4.30;;
705;SDS011;21234;48.690;9.016;2023-04-07T11:11:35;5.90;;;3.93;;
705;SDS011;21234;48.690;9.016;2023-04-07T11:14:04;10.77;;;5.00;;
705;SDS011;21234;48.690;9.016;2023-04-07T11:16:35;10.07;;;5.07;;
705;SDS011;21234;48.690;9.016;2023-04-07T11:19:03;5.97;;;4.03;;
705;SDS011;21234;48.690;9.016;2023-04-07T11:21:30;10.30;;;6.20;;
705;SDS011;21234;48.690;9.016;2023-04-07T11:23:58;6.40;;;4.00;;
705;SDS011;21234;48.690;9.016;2023-04-07T11:26:24;5.53;;;3.23;;
705;SDS011;21234;48.690;9.016;2023-04-07T11:28:52;6.23;;;3.90;;
705;SDS011;21234;48.690;9.016;2023-04-07T11:31:20;11.13;;;4.27;;
705;SDS011;21234;48.690;9.016;2023-04-07T11:33:50;4.60;;;2.87;;
705;SDS011;21234;48.690;9.016;2023-04-07T11:36:25;5.20;;;3.70;;
705;SDS011;21234;48.690;9.016;2023-04-07T11:38:53;4.63;;;3.33;;
705;SDS011;21234;48.690;9.016;2023-04-07T11:41:23;4.00;;;3.13;;
705;SDS011;21234;48.690;9.016;2023-04-07T11:46:51;8.43;;;3.47;;
705;SDS011;21234;48.690;9.016;2023-04-07T11:49:18;3.97;;;3.60;;
705;SDS011;21234;48.690;9.016;2023-04-07T11:51:47;4.10;;;3.33;;
705;SDS011;21234;48.690;9.016;2023-04-07T11:54:14;4.10;;;3.70;;
705;SDS011;21234;48.690;9.016;2023-04-07T11:56:43;4.73;;;4.23;;
705;SDS011;21234;48.690;9.016;2023-04-07T11:59:18;7.63;;;4.97;;
705;SDS011;21234;48.690;9.016;2023-04-07T12:01:47;4.03;;;3.40;;
705;SDS011;21234;48.690;9.016;2023-04-07T12:04:14;4.20;;;3.27;;
705;SDS011;21234;48.690;9.016;2023-04-07T12:06:41;4.00;;;3.43;;
705;SDS011;21234;48.690;9.016;2023-04-07T12:09:23;5.73;;;3.10;;
705;SDS011;21234;48.690;9.016;2023-04-07T12:11:52;5.90;;;3.63;;
705;SDS011;21234;48.690;9.016;2023-04-07T12:14:19;4.97;;;3.83;;
705;SDS011;21234;48.690;9.016;2023-04-07T12:16:46;5.83;;;3.30;;
705;SDS011;21234;48.690;9.016;2023-04-07T12:19:13;5.00;;;4.23;;
705;SDS011;21234;48.690;9.016;2023-04-07T12:21:39;7.73;;;4.20;;
705;SDS011;21234;48.690;9.016;2023-04-07T12:24:06;6.50;;;3.27;;
705;SDS011;21234;48.690;9.016;2023-04-07T12:26:33;6.47;;;4.10;;
705;SDS011;21234;48.690;9.016;2023-04-07T12:29:01;5.77;;;4.90;;
705;SDS011;21234;48.690;9.016;2023-04-07T12:31:29;5.70;;;4.50;;
705;SDS011;21234;48.690;9.016;2023-04-07T12:34:04;6.60;;;4.13;;
705;SDS011;21234;48.690;9.016;2023-04-07T12:36:31;5.30;;;4.30;;
705;SDS011;21234;48.690;9.016;2023-04-07T12:38:58;4.20;;;3.67;;
705;SDS011;21234;48.690;9.016;2023-04-07T12:41:25;6.07;;;4.07;;
705;SDS011;21234;48.690;9.016;2023-04-07T12:43:51;5.93;;;3.77;;
705;SDS011;21234;48.690;9.016;2023-04-07T12:46:18;3.90;;;3.43;;
705;SDS011;21234;48.690;9.016;2023-04-07T12:48:45;5.80;;;3.83;;
705;SDS011;21234;48.690;9.016;2023-04-07T12:51:15;3.87;;;3.27;;
705;SDS011;21234;48.690;9.016;2023-04-07T12:53:41;4.80;;;3.57;;
705;SDS011;21234;48.690;9.016;2023-04-07T12:56:08;4.83;;;4.03;;
705;SDS011;21234;48.690;9.016;2023-04-07T12:58:37;6.87;;;3.50;;
705;SDS011;21234;48.690;9.016;2023-04-07T13:01:04;6.17;;;3.60;;
705;SDS011;21234;48.690;9.016;2023-04-07T13:03:31;5.17;;;4.27;;
705;SDS011;21234;48.690;9.016;2023-04-07T13:05:58;6.37;;;4.00;;
705;SDS011;21234;48.690;9.016;2023-04-07T13:08:26;5.03;;;4.50;;
705;SDS011;21234;48.690;9.016;2023-04-07T13:10:54;5.17;;;4.10;;
705;SDS011;21234;48.690;9.016;2023-04-07T13:13:21;5.53;;;4.10;;
705;SDS011;21234;48.690;9.016;2023-04-07T13:15:48;5.33;;;4.23;;
705;SDS011;21234;48.690;9.016;2023-04-07T13:18:15;4.20;;;3.17;;
705;SDS011;21234;48.690;9.016;2023-04-07T13:20:41;3.00;;;2.70;;
705;SDS011;21234;48.690;9.016;2023-04-07T13:23:08;3.90;;;3.00;;
705;SDS011;21234;48.690;9.016;2023-04-07T13:25:37;2.83;;;2.63;;
705;SDS011;21234;48.690;9.016;2023-04-07T13:28:04;4.30;;;3.40;;
705;SDS011;21234;48.690;9.016;2023-04-07T13:30:30;3.20;;;2.90;;
705;SDS011;21234;48.690;9.016;2023-04-07T13:32:57;3.30;;;2.37;;
705;SDS011;21234;48.690;9.016;2023-04-07T13:35:24;5.30;;;2.93;;
705;SDS011;21234;48.690;9.016;2023-04-07T13:37:51;3.57;;;2.43;;
705;SDS011;21234;48.690;9.016;2023-04-07T13:40:18;2.83;;;2.63;;
705;SDS011;21234;48.690;9.016;2023-04-07T13:42:46;3.00;;;2.50;;
705;SDS011;21234;48.690;9.016;2023-04-07T13:45:13;3.13;;;2.93;;
705;SDS011;21234;48.690;9.016;2023-04-07T13:47:39;3.57;;;2.97;;
705;SDS011;21234;48.690;9.016;2023-04-07T13:50:06;3.97;;;3.00;;
705;SDS011;21234;48.690;9.016;2023-04-07T13:52:33;3.13;;;2.70;;
705;SDS011;21234;48.690;9.016;2023-04-07T13:55:00;5.27;;;3.20;;
705;SDS011;21234;48.690;9.016;2023-04-07T13:57:28;4.10;;;3.13;;
705;SDS011;21234;48.690;9.016;2023-04-07T13:59:56;3.83;;;2.90;;
705;SDS011;21234;48.690;9.016;2023-04-07T14:02:24;2.97;;;2.67;;
705;SDS011;21234;48.690;9.016;2023-04-07T14:04:52;4.67;;;4.00;;
705;SDS011;21234;48.690;9.016;2023-04-07T14:07:18;3.83;;;3.23;;
705;SDS011;21234;48.690;9.016;2023-04-07T14:09:45;4.00;;;1.93;;
705;SDS011;21234;48.690;9.016;2023-04-07T14:12:12;2.57;;;2.37;;
705;SDS011;21234;48.690;9.016;2023-04-07T14:14:39;2.77;;;2.57;;
705;SDS011;21234;48.690;9.016;2023-04-07T14:17:08;7.73;;;3.37;;
705;SDS011;21234;48.690;9.016;2023-04-07T14:19:34;3.70;;;3.40;;
705;SDS011;21234;48.690;9.016;2023-04-07T14:22:01;2.90;;;2.70;;
705;SDS011;21234;48.690;9.016;2023-04-07T14:24:28;3.47;;;3.17;;
705;SDS011;21234;48.690;9.016;2023-04-07T14:26:54;5.57;;;4.53;;
705;SDS011;21234;48.690;9.016;2023-04-07T14:29:21;12.13;;;8.17;;
705;SDS011;21234;48.690;9.016;2023-04-07T14:31:48;17.70;;;12.87;;
705;SDS011;21234;48.690;9.016;2023-04-07T14:34:16;17.13;;;9.83;;
705;SDS011;21234;48.690;9.016;2023-04-07T14:36:51;5.67;;;4.00;;
705;SDS011;21234;48.690;9.016;2023-04-07T14:39:18;4.37;;;3.40;;
705;SDS011;21234;48.690;9.016;2023-04-07T14:41:45;4.50;;;3.50;;
705;SDS011;21234;48.690;9.016;2023-04-07T14:44:13;9.23;;;3.83;;
705;SDS011;21234;48.690;9.016;2023-04-07T14:46:39;7.20;;;4.37;;
705;SDS011;21234;48.690;9.016;2023-04-07T14:49:07;9.10;;;5.87;;
705;SDS011;21234;48.690;9.016;2023-04-07T14:51:35;8.00;;;6.10;;
705;SDS011;21234;48.690;9.016;2023-04-07T14:54:02;6.70;;;5.20;;
705;SDS011;21234;48.690;9.016;2023-04-07T14:56:29;8.00;;;6.47;;
705;SDS011;21234;48.690;9.016;2023-04-07T14:58:56;9.23;;;6.60;;
705;SDS011;21234;48.690;9.016;2023-04-07T15:01:23;8.43;;;6.00;;
705;SDS011;21234;48.690;9.016;2023-04-07T15:03:50;6.10;;;5.47;;
705;SDS011;21234;48.690;9.016;2023-04-07T15:06:16;7.17;;;5.40;;
705;SDS011;21234;48.690;9.016;2023-04-07T15:08:46;9.80;;;6.47;;
705;SDS011;21234;48.690;9.016;2023-04-07T15:11:13;6.73;;;6.13;;
705;SDS011;21234;48.690;9.016;2023-04-07T15:13:40;7.10;;;5.57;;
705;SDS011;21234;48.690;9.016;2023-04-07T15:16:07;7.33;;;5.90;;
705;SDS011;21234;48.690;9.016;2023-04-07T15:18:36;6.37;;;5.07;;
705;SDS011;21234;48.690;9.016;2023-04-07T15:21:05;10.23;;;6.10;;
705;SDS011;21234;48.690;9.016;2023-04-07T15:23:31;6.70;;;5.63;;
705;SDS011;21234;48.690;9.016;2023-04-07T15:26:00;7.17;;;5.27;;
705;SDS011;21234;48.690;9.016;2023-04-07T15:28:26;5.97;;;5.37;;
705;SDS011;21234;48.690;9.016;2023-04-07T15:30:53;5.70;;;5.20;;
705;SDS011;21234;48.690;9.016;2023-04-07T15:33:20;9.67;;;6.53;;
705;SDS011;21234;48.690;9.016;2023-04-07T15:35:47;9.40;;;5.50;;